sensor_id;sensor_type;location;lat;lon;timestamp;P1;durP1;ratioP1;P2;durP2;ratioP2
8337;SDS011;4206;48.634;9.516;2023-10-13T00:00:29;7.00;;;2.80;;
8337;SDS011;4206;48.634;9.516;2023-10-13T00:03:00;7.33;;;3.00;;
8337;SDS011;4206;48.634;9.516;2023-10-13T00:05:28;5.27;;;2.80;;
8337;SDS011;4206;48.634;9.516;2023-10-13T00:07:59;8.03;;;3.17;;
8337;SDS011;4206;48.634;9.516;2023-10-13T00:10:28;6.53;;;2.63;;
8337;SDS011;4206;48.634;9.516;2023-10-13T00:12:57;5.93;;;2.60;;
8337;SDS011;4206;48.634;9.516;2023-10-13T00:15:40;6.27;;;3.50;;
8337;SDS011;4206;48.634;9.516;2023-10-13T00:18:28;6.73;;;3.53;;
8337;SDS011;4206;48.634;9.516;2023-10-13T00:21:00;6.23;;;3.30;;
8337;SDS011;4206;48.634;9.516;2023-10-13T00:23:39;9.83;;;2.90;;
8337;SDS011;4206;48.634;9.516;2023-10-13T00:26:20;9.03;;;3.23;;
8337;SDS011;4206;48.634;9.516;2023-10-13T00:28:54;6.17;;;2.80;;
8337;SDS011;4206;48.634;9.516;2023-10-13T00:31:36;6.93;;;2.60;;
8337;SDS011;4206;48.634;9.516;2023-10-13T00:34:06;8.63;;;3.00;;
8337;SDS011;4206;48.634;9.516;2023-10-13T00:36:48;5.67;;;3.03;;
8337;SDS011;4206;48.634;9.516;2023-10-13T00:39:36;7.90;;;2.80;;
8337;SDS011;4206;48.634;9.516;2023-10-13T00:42:06;5.97;;;2.80;;
8337;SDS011;4206;48.634;9.516;2023-10-13T00:44:34;10.63;;;3.20;;
8337;SDS011;4206;48.634;9.516;2023-10-13T00:47:08;10.17;;;3.03;;
8337;SDS011;4206;48.634;9.516;2023-10-13T00:49:36;5.17;;;2.90;;
8337;SDS011;4206;48.634;9.516;2023-10-13T00:52:06;9.07;;;3.20;;
8337;SDS011;4206;48.634;9.516;2023-10-13T00:54:36;6.90;;;3.17;;
8337;SDS011;4206;48.634;9.516;2023-10-13T00:57:05;7.83;;;3.00;;
8337;SDS011;4206;48.634;9.516;2023-10-13T00:59:38;5.23;;;2.97;;
8337;SDS011;4206;48.634;9.516;2023-10-13T01:02:08;3.53;;;3.00;;
8337;SDS011;4206;48.634;9.516;2023-10-13T01:04:55;7.03;;;3.30;;
8337;SDS011;4206;48.634;9.516;2023-10-13T01:07:23;5.63;;;3.17;;
8337;SDS011;4206;48.634;9.516;2023-10-13T01:09:51;7.13;;;3.03;;
8337;SDS011;4206;48.634;9.516;2023-10-13T01:12:18;11.47;;;3.30;;
8337;SDS011;4206;48.634;9.516;2023-10-13T01:14:44;6.27;;;3.60;;
8337;SDS011;4206;48.634;9.516;2023-10-13T01:17:12;7.43;;;4.30;;
8337;SDS011;4206;48.634;9.516;2023-10-13T01:19:39;5.10;;;2.67;;
8337;SDS011;4206;48.634;9.516;2023-10-13T01:22:11;5.53;;;3.10;;
8337;SDS011;4206;48.634;9.516;2023-10-13T01:24:39;7.50;;;3.40;;
8337;SDS011;4206;48.634;9.516;2023-10-13T01:27:06;6.40;;;3.37;;
8337;SDS011;4206;48.634;9.516;2023-10-13T01:29:49;7.27;;;3.20;;
8337;SDS011;4206;48.634;9.516;2023-10-13T01:32:18;8.27;;;3.13;;
8337;SDS011;4206;48.634;9.516;2023-10-13T01:34:46;5.40;;;3.10;;
8337;SDS011;4206;48.634;9.516;2023-10-13T01:37:14;5.40;;;3.03;;
8337;SDS011;4206;48.634;9.516;2023-10-13T01:39:42;5.23;;;3.33;;
8337;SDS011;4206;48.634;9.516;2023-10-13T01:42:14;8.03;;;3.30;;
8337;SDS011;4206;48.634;9.516;2023-10-13T01:44:48;6.50;;;3.30;;
8337;SDS011;4206;48.634;9.516;2023-10-13T01:47:15;8.20;;;3.03;;
8337;SDS011;4206;48.634;9.516;2023-10-13T01:49:43;7.30;;;3.67;;
8337;SDS011;4206;48.634;9.516;2023-10-13T01:52:17;6.93;;;3.77;;
8337;SDS011;4206;48.634;9.516;2023-10-13T01:54:45;5.80;;;3.27;;
8337;SDS011;4206;48.634;9.516;2023-10-13T01:57:16;6.23;;;2.73;;
8337;SDS011;4206;48.634;9.516;2023-10-13T01:59:45;8.93;;;2.83;;
8337;SDS011;4206;48.634;9.516;2023-10-13T02:02:15;9.30;;;3.07;;
8337;SDS011;4206;48.634;9.516;2023-10-13T02:04:53;7.40;;;3.83;;
8337;SDS011;4206;48.634;9.516;2023-10-13T02:07:24;8.07;;;3.80;;
8337;SDS011;4206;48.634;9.516;2023-10-13T02:09:56;9.00;;;3.90;;
8337;SDS011;4206;48.634;9.516;2023-10-13T02:12:23;8.00;;;3.77;;
8337;SDS011;4206;48.634;9.516;2023-10-13T02:15:02;6.40;;;3.67;;
8337;SDS011;4206;48.634;9.516;2023-10-13T02:17:31;8.33;;;3.67;;
8337;SDS011;4206;48.634;9.516;2023-10-13T02:20:08;6.00;;;3.33;;
8337;SDS011;4206;48.634;9.516;2023-10-13T02:22:41;4.70;;;3.70;;
8337;SDS011;4206;48.634;9.516;2023-10-13T02:25:16;6.90;;;3.50;;
8337;SDS011;4206;48.634;9.516;2023-10-13T02:28:01;4.57;;;3.27;;
8337;SDS011;4206;48.634;9.516;2023-10-13T02:30:28;4.83;;;3.47;;
8337;SDS011;4206;48.634;9.516;2023-10-13T02:32:56;7.83;;;4.10;;
8337;SDS011;4206;48.634;9.516;2023-10-13T02:35:24;4.53;;;3.30;;
8337;SDS011;4206;48.634;9.516;2023-10-13T02:38:08;6.53;;;3.60;;
8337;SDS011;4206;48.634;9.516;2023-10-13T02:40:39;7.30;;;4.03;;
8337;SDS011;4206;48.634;9.516;2023-10-13T02:43:07;8.77;;;4.33;;
8337;SDS011;4206;48.634;9.516;2023-10-13T02:45:35;5.73;;;3.50;;
8337;SDS011;4206;48.634;9.516;2023-10-13T02:48:04;10.80;;;3.40;;
8337;SDS011;4206;48.634;9.516;2023-10-13T02:50:54;5.20;;;3.50;;
8337;SDS011;4206;48.634;9.516;2023-10-13T02:53:29;7.77;;;3.43;;
8337;SDS011;4206;48.634;9.516;2023-10-13T02:55:56;7.57;;;3.53;;
8337;SDS011;4206;48.634;9.516;2023-10-13T02:58:33;5.57;;;3.30;;
8337;SDS011;4206;48.634;9.516;2023-10-13T03:01:16;9.00;;;4.50;;
8337;SDS011;4206;48.634;9.516;2023-10-13T03:03:45;6.40;;;3.40;;
8337;SDS011;4206;48.634;9.516;2023-10-13T03:06:17;7.80;;;3.90;;
8337;SDS011;4206;48.634;9.516;2023-10-13T03:08:51;8.50;;;4.00;;
8337;SDS011;4206;48.634;9.516;2023-10-13T03:11:19;5.50;;;3.40;;
8337;SDS011;4206;48.634;9.516;2023-10-13T03:13:49;13.30;;;3.50;;
8337;SDS011;4206;48.634;9.516;2023-10-13T03:16:18;14.43;;;4.20;;
8337;SDS011;4206;48.634;9.516;2023-10-13T03:18:47;8.77;;;3.33;;
8337;SDS011;4206;48.634;9.516;2023-10-13T03:21:20;13.63;;;3.60;;
8337;SDS011;4206;48.634;9.516;2023-10-13T03:23:57;7.10;;;3.70;;
8337;SDS011;4206;48.634;9.516;2023-10-13T03:26:41;9.30;;;3.87;;
8337;SDS011;4206;48.634;9.516;2023-10-13T03:29:18;12.63;;;3.90;;
8337;SDS011;4206;48.634;9.516;2023-10-13T03:31:48;3.73;;;3.20;;
8337;SDS011;4206;48.634;9.516;2023-10-13T03:34:33;9.50;;;4.17;;
8337;SDS011;4206;48.634;9.516;2023-10-13T03:37:02;18.63;;;4.20;;
8337;SDS011;4206;48.634;9.516;2023-10-13T03:39:44;8.97;;;3.73;;
8337;SDS011;4206;48.634;9.516;2023-10-13T03:42:13;7.03;;;3.60;;
8337;SDS011;4206;48.634;9.516;2023-10-13T03:44:45;6.30;;;3.70;;
8337;SDS011;4206;48.634;9.516;2023-10-13T03:47:14;8.77;;;3.73;;
8337;SDS011;4206;48.634;9.516;2023-10-13T03:49:45;13.20;;;3.70;;
8337;SDS011;4206;48.634;9.516;2023-10-13T03:52:17;4.17;;;3.30;;
8337;SDS011;4206;48.634;9.516;2023-10-13T03:54:49;8.93;;;3.77;;
8337;SDS011;4206;48.634;9.516;2023-10-13T03:57:17;16.10;;;3.70;;
8337;SDS011;4206;48.634;9.516;2023-10-13T03:59:44;10.30;;;3.60;;
8337;SDS011;4206;48.634;9.516;2023-10-13T04:02:15;6.70;;;4.43;;
8337;SDS011;4206;48.634;9.516;2023-10-13T04:04:47;7.67;;;3.60;;
8337;SDS011;4206;48.634;9.516;2023-10-13T04:07:15;6.20;;;3.57;;
8337;SDS011;4206;48.634;9.516;2023-10-13T04:09:57;14.03;;;4.03;;
8337;SDS011;4206;48.634;9.516;2023-10-13T04:12:39;10.37;;;3.77;;
8337;SDS011;4206;48.634;9.516;2023-10-13T04:15:22;6.60;;;3.63;;
8337;SDS011;4206;48.634;9.516;2023-10-13T04:17:49;8.00;;;3.67;;
8337;SDS011;4206;48.634;9.516;2023-10-13T04:20:17;6.90;;;3.53;;
8337;SDS011;4206;48.634;9.516;2023-10-13T04:22:59;6.00;;;3.63;;
8337;SDS011;4206;48.634;9.516;2023-10-13T04:25:27;7.90;;;3.23;;
8337;SDS011;4206;48.634;9.516;2023-10-13T04:27:54;5.10;;;4.00;;
8337;SDS011;4206;48.634;9.516;2023-10-13T04:30:43;9.67;;;3.83;;
8337;SDS011;4206;48.634;9.516;2023-10-13T04:33:23;11.23;;;4.00;;
8337;SDS011;4206;48.634;9.516;2023-10-13T04:36:07;7.50;;;4.13;;
8337;SDS011;4206;48.634;9.516;2023-10-13T04:38:51;10.50;;;4.20;;
8337;SDS011;4206;48.634;9.516;2023-10-13T04:41:27;8.23;;;3.90;;
8337;SDS011;4206;48.634;9.516;2023-10-13T04:44:14;5.90;;;3.60;;
8337;SDS011;4206;48.634;9.516;2023-10-13T04:46:57;14.50;;;3.97;;
8337;SDS011;4206;48.634;9.516;2023-10-13T04:49:27;14.23;;;3.87;;
8337;SDS011;4206;48.634;9.516;2023-10-13T04:51:56;5.70;;;3.80;;
8337;SDS011;4206;48.634;9.516;2023-10-13T04:54:26;8.50;;;4.50;;
8337;SDS011;4206;48.634;9.516;2023-10-13T04:57:00;7.90;;;4.63;;
8337;SDS011;4206;48.634;9.516;2023-10-13T04:59:43;7.67;;;4.60;;
8337;SDS011;4206;48.634;9.516;2023-10-13T05:02:25;8.53;;;4.67;;
8337;SDS011;4206;48.634;9.516;2023-10-13T05:05:08;8.80;;;4.23;;
8337;SDS011;4206;48.634;9.516;2023-10-13T05:07:48;11.83;;;4.53;;
8337;SDS011;4206;48.634;9.516;2023-10-13T05:10:30;8.47;;;4.43;;
8337;SDS011;4206;48.634;9.516;2023-10-13T05:13:13;11.73;;;4.57;;
8337;SDS011;4206;48.634;9.516;2023-10-13T05:15:56;12.50;;;4.93;;
8337;SDS011;4206;48.634;9.516;2023-10-13T05:18:38;8.17;;;4.27;;
8337;SDS011;4206;48.634;9.516;2023-10-13T05:21:20;9.27;;;4.10;;
8337;SDS011;4206;48.634;9.516;2023-10-13T05:24:08;6.80;;;4.17;;
8337;SDS011;4206;48.634;9.516;2023-10-13T05:26:51;7.20;;;4.17;;
8337;SDS011;4206;48.634;9.516;2023-10-13T05:29:38;10.40;;;4.50;;
8337;SDS011;4206;48.634;9.516;2023-10-13T05:32:20;9.60;;;4.37;;
8337;SDS011;4206;48.634;9.516;2023-10-13T05:35:05;10.80;;;4.13;;
8337;SDS011;4206;48.634;9.516;2023-10-13T05:37:50;9.50;;;4.57;;
8337;SDS011;4206;48.634;9.516;2023-10-13T05:40:33;8.80;;;4.40;;
8337;SDS011;4206;48.634;9.516;2023-10-13T05:43:16;9.33;;;4.80;;
8337;SDS011;4206;48.634;9.516;2023-10-13T05:46:02;19.20;;;7.13;;
8337;SDS011;4206;48.634;9.516;2023-10-13T05:48:46;21.47;;;12.30;;
8337;SDS011;4206;48.634;9.516;2023-10-13T05:51:28;28.13;;;17.03;;
8337;SDS011;4206;48.634;9.516;2023-10-13T05:54:10;45.07;;;25.67;;
8337;SDS011;4206;48.634;9.516;2023-10-13T05:56:41;43.73;;;21.27;;
8337;SDS011;4206;48.634;9.516;2023-10-13T05:59:24;35.13;;;19.10;;
8337;SDS011;4206;48.634;9.516;2023-10-13T06:02:06;40.53;;;23.30;;
8337;SDS011;4206;48.634;9.516;2023-10-13T06:04:49;33.97;;;18.00;;
8337;SDS011;4206;48.634;9.516;2023-10-13T06:07:31;24.20;;;11.50;;
8337;SDS011;4206;48.634;9.516;2023-10-13T06:10:13;22.33;;;9.43;;
8337;SDS011;4206;48.634;9.516;2023-10-13T06:13:00;18.00;;;8.00;;
8337;SDS011;4206;48.634;9.516;2023-10-13T06:15:42;12.17;;;6.93;;
8337;SDS011;4206;48.634;9.516;2023-10-13T06:18:25;11.13;;;7.50;;
8337;SDS011;4206;48.634;9.516;2023-10-13T06:21:07;17.43;;;7.57;;
8337;SDS011;4206;48.634;9.516;2023-10-13T06:23:49;22.10;;;8.10;;
8337;SDS011;4206;48.634;9.516;2023-10-13T06:26:32;17.43;;;8.40;;
8337;SDS011;4206;48.634;9.516;2023-10-13T06:29:14;13.67;;;7.23;;
8337;SDS011;4206;48.634;9.516;2023-10-13T06:31:47;17.87;;;7.17;;
8337;SDS011;4206;48.634;9.516;2023-10-13T06:34:14;10.57;;;6.30;;
8337;SDS011;4206;48.634;9.516;2023-10-13T06:36:42;14.67;;;5.27;;
8337;SDS011;4206;48.634;9.516;2023-10-13T06:39:13;18.50;;;6.10;;
8337;SDS011;4206;48.634;9.516;2023-10-13T06:41:59;11.60;;;6.33;;
8337;SDS011;4206;48.634;9.516;2023-10-13T06:44:26;12.40;;;6.00;;
8337;SDS011;4206;48.634;9.516;2023-10-13T06:46:58;7.73;;;4.43;;
8337;SDS011;4206;48.634;9.516;2023-10-13T06:49:30;10.03;;;4.90;;
8337;SDS011;4206;48.634;9.516;2023-10-13T06:52:05;18.70;;;5.40;;
8337;SDS011;4206;48.634;9.516;2023-10-13T06:54:33;41.83;;;23.47;;
8337;SDS011;4206;48.634;9.516;2023-10-13T06:57:01;13.23;;;6.60;;
8337;SDS011;4206;48.634;9.516;2023-10-13T06:59:30;8.83;;;6.50;;
8337;SDS011;4206;48.634;9.516;2023-10-13T07:01:59;7.90;;;5.00;;
8337;SDS011;4206;48.634;9.516;2023-10-13T07:04:51;10.70;;;4.73;;
8337;SDS011;4206;48.634;9.516;2023-10-13T07:07:23;8.80;;;4.10;;
8337;SDS011;4206;48.634;9.516;2023-10-13T07:09:51;14.07;;;5.17;;
8337;SDS011;4206;48.634;9.516;2023-10-13T07:12:25;10.40;;;4.63;;
8337;SDS011;4206;48.634;9.516;2023-10-13T07:14:53;7.67;;;3.97;;
8337;SDS011;4206;48.634;9.516;2023-10-13T07:17:40;13.90;;;4.70;;
8337;SDS011;4206;48.634;9.516;2023-10-13T07:20:11;11.57;;;5.20;;
8337;SDS011;4206;48.634;9.516;2023-10-13T07:22:42;7.83;;;4.00;;
8337;SDS011;4206;48.634;9.516;2023-10-13T07:25:22;8.50;;;3.80;;
8337;SDS011;4206;48.634;9.516;2023-10-13T07:27:52;11.63;;;3.10;;
8337;SDS011;4206;48.634;9.516;2023-10-13T07:30:20;6.03;;;3.47;;
8337;SDS011;4206;48.634;9.516;2023-10-13T07:32:53;8.63;;;3.87;;
8337;SDS011;4206;48.634;9.516;2023-10-13T07:35:24;6.50;;;3.93;;
8337;SDS011;4206;48.634;9.516;2023-10-13T07:37:53;7.60;;;3.53;;
8337;SDS011;4206;48.634;9.516;2023-10-13T07:40:21;8.63;;;3.37;;
8337;SDS011;4206;48.634;9.516;2023-10-13T07:42:52;14.80;;;4.20;;
8337;SDS011;4206;48.634;9.516;2023-10-13T07:45:27;8.20;;;3.90;;
8337;SDS011;4206;48.634;9.516;2023-10-13T07:48:03;12.63;;;4.50;;
8337;SDS011;4206;48.634;9.516;2023-10-13T07:50:43;9.23;;;3.97;;
8337;SDS011;4206;48.634;9.516;2023-10-13T07:53:12;11.77;;;3.93;;
8337;SDS011;4206;48.634;9.516;2023-10-13T07:55:49;9.13;;;3.50;;
8337;SDS011;4206;48.634;9.516;2023-10-13T07:58:22;12.10;;;3.57;;
8337;SDS011;4206;48.634;9.516;2023-10-13T08:00:53;7.13;;;3.57;;
8337;SDS011;4206;48.634;9.516;2023-10-13T08:03:36;7.47;;;3.40;;
8337;SDS011;4206;48.634;9.516;2023-10-13T08:06:11;7.00;;;3.60;;
8337;SDS011;4206;48.634;9.516;2023-10-13T08:08:47;9.40;;;4.67;;
8337;SDS011;4206;48.634;9.516;2023-10-13T08:11:17;6.33;;;3.47;;
8337;SDS011;4206;48.634;9.516;2023-10-13T08:13:52;6.03;;;3.53;;
8337;SDS011;4206;48.634;9.516;2023-10-13T08:16:33;9.00;;;3.23;;
8337;SDS011;4206;48.634;9.516;2023-10-13T08:19:16;10.43;;;4.80;;
8337;SDS011;4206;48.634;9.516;2023-10-13T08:21:47;8.40;;;3.90;;
8337;SDS011;4206;48.634;9.516;2023-10-13T08:24:18;5.73;;;3.50;;
8337;SDS011;4206;48.634;9.516;2023-10-13T08:26:53;10.80;;;3.75;;
8337;SDS011;4206;48.634;9.516;2023-10-13T08:29:24;5.07;;;3.30;;
8337;SDS011;4206;48.634;9.516;2023-10-13T08:31:54;7.50;;;3.50;;
8337;SDS011;4206;48.634;9.516;2023-10-13T08:34:37;7.47;;;3.53;;
8337;SDS011;4206;48.634;9.516;2023-10-13T08:37:25;12.18;;;3.63;;
8337;SDS011;4206;48.634;9.516;2023-10-13T08:39:53;9.20;;;3.42;;
8337;SDS011;4206;48.634;9.516;2023-10-13T08:42:33;13.15;;;4.57;;
8337;SDS011;4206;48.634;9.516;2023-10-13T08:45:07;9.40;;;4.22;;
8337;SDS011;4206;48.634;9.516;2023-10-13T08:47:50;11.73;;;4.25;;
8337;SDS011;4206;48.634;9.516;2023-10-13T08:50:35;8.45;;;3.90;;
8337;SDS011;4206;48.634;9.516;2023-10-13T08:53:21;6.72;;;3.33;;
8337;SDS011;4206;48.634;9.516;2023-10-13T08:55:58;11.65;;;4.53;;
8337;SDS011;4206;48.634;9.516;2023-10-13T08:58:31;7.55;;;3.22;;
8337;SDS011;4206;48.634;9.516;2023-10-13T09:01:15;9.35;;;4.10;;
8337;SDS011;4206;48.634;9.516;2023-10-13T09:03:58;17.00;;;3.92;;
8337;SDS011;4206;48.634;9.516;2023-10-13T09:09:31;8.40;;;4.57;;
8337;SDS011;4206;48.634;9.516;2023-10-13T09:12:02;11.20;;;3.53;;
8337;SDS011;4206;48.634;9.516;2023-10-13T09:14:40;13.00;;;3.80;;
8337;SDS011;4206;48.634;9.516;2023-10-13T09:17:11;10.85;;;3.40;;
8337;SDS011;4206;48.634;9.516;2023-10-13T09:19:50;12.38;;;3.85;;
8337;SDS011;4206;48.634;9.516;2023-10-13T09:22:26;14.50;;;4.35;;
8337;SDS011;4206;48.634;9.516;2023-10-13T09:24:55;7.05;;;3.30;;
8337;SDS011;4206;48.634;9.516;2023-10-13T09:27:27;10.05;;;3.38;;
8337;SDS011;4206;48.634;9.516;2023-10-13T09:29:56;10.73;;;4.13;;
8337;SDS011;4206;48.634;9.516;2023-10-13T09:32:24;10.00;;;3.87;;
8337;SDS011;4206;48.634;9.516;2023-10-13T09:34:59;6.97;;;3.37;;
8337;SDS011;4206;48.634;9.516;2023-10-13T09:37:28;13.40;;;3.83;;
8337;SDS011;4206;48.634;9.516;2023-10-13T09:39:59;8.70;;;3.77;;
8337;SDS011;4206;48.634;9.516;2023-10-13T09:42:31;7.67;;;3.17;;
8337;SDS011;4206;48.634;9.516;2023-10-13T09:45:01;20.70;;;4.07;;
8337;SDS011;4206;48.634;9.516;2023-10-13T09:47:30;11.13;;;4.30;;
8337;SDS011;4206;48.634;9.516;2023-10-13T09:50:04;15.67;;;3.90;;
8337;SDS011;4206;48.634;9.516;2023-10-13T09:52:50;17.13;;;4.27;;
8337;SDS011;4206;48.634;9.516;2023-10-13T09:55:27;7.33;;;3.60;;
8337;SDS011;4206;48.634;9.516;2023-10-13T09:58:02;9.87;;;3.87;;
8337;SDS011;4206;48.634;9.516;2023-10-13T10:00:45;15.83;;;5.00;;
8337;SDS011;4206;48.634;9.516;2023-10-13T10:03:16;10.67;;;3.67;;
8337;SDS011;4206;48.634;9.516;2023-10-13T10:06:02;8.83;;;4.50;;
8337;SDS011;4206;48.634;9.516;2023-10-13T10:08:33;8.83;;;3.60;;
8337;SDS011;4206;48.634;9.516;2023-10-13T10:16:37;8.27;;;3.40;;
8337;SDS011;4206;48.634;9.516;2023-10-13T10:19:20;9.90;;;2.93;;
8337;SDS011;4206;48.634;9.516;2023-10-13T10:21:48;8.87;;;3.23;;
8337;SDS011;4206;48.634;9.516;2023-10-13T10:24:15;14.50;;;3.57;;
8337;SDS011;4206;48.634;9.516;2023-10-13T10:26:55;7.47;;;3.30;;
8337;SDS011;4206;48.634;9.516;2023-10-13T10:29:22;8.17;;;3.10;;
8337;SDS011;4206;48.634;9.516;2023-10-13T10:31:49;7.87;;;3.17;;
8337;SDS011;4206;48.634;9.516;2023-10-13T10:34:17;6.37;;;3.27;;
8337;SDS011;4206;48.634;9.516;2023-10-13T10:36:46;6.47;;;3.00;;
8337;SDS011;4206;48.634;9.516;2023-10-13T10:39:14;7.43;;;3.30;;
8337;SDS011;4206;48.634;9.516;2023-10-13T10:41:41;16.30;;;3.40;;
8337;SDS011;4206;48.634;9.516;2023-10-13T10:44:09;5.10;;;2.80;;
8337;SDS011;4206;48.634;9.516;2023-10-13T10:46:42;7.27;;;3.13;;
8337;SDS011;4206;48.634;9.516;2023-10-13T10:49:19;8.53;;;3.17;;
8337;SDS011;4206;48.634;9.516;2023-10-13T10:51:58;8.17;;;2.80;;
8337;SDS011;4206;48.634;9.516;2023-10-13T10:54:30;13.53;;;3.43;;
8337;SDS011;4206;48.634;9.516;2023-10-13T10:56:59;10.13;;;3.80;;
8337;SDS011;4206;48.634;9.516;2023-10-13T10:59:41;8.43;;;3.70;;
8337;SDS011;4206;48.634;9.516;2023-10-13T11:02:08;11.17;;;5.33;;
8337;SDS011;4206;48.634;9.516;2023-10-13T11:04:41;10.37;;;5.60;;
8337;SDS011;4206;48.634;9.516;2023-10-13T11:07:24;19.03;;;4.93;;
8337;SDS011;4206;48.634;9.516;2023-10-13T11:09:52;12.87;;;2.60;;
8337;SDS011;4206;48.634;9.516;2023-10-13T11:12:19;7.20;;;3.50;;
8337;SDS011;4206;48.634;9.516;2023-10-13T11:17:28;24.67;;;7.17;;
8337;SDS011;4206;48.634;9.516;2023-10-13T11:20:11;17.57;;;6.00;;
8337;SDS011;4206;48.634;9.516;2023-10-13T11:22:54;7.10;;;4.03;;
8337;SDS011;4206;48.634;9.516;2023-10-13T11:25:23;8.77;;;3.33;;
8337;SDS011;4206;48.634;9.516;2023-10-13T11:27:57;9.47;;;3.37;;
8337;SDS011;4206;48.634;9.516;2023-10-13T11:30:26;10.40;;;4.07;;
8337;SDS011;4206;48.634;9.516;2023-10-13T11:33:08;10.53;;;2.77;;
8337;SDS011;4206;48.634;9.516;2023-10-13T11:35:37;7.50;;;3.10;;
8337;SDS011;4206;48.634;9.516;2023-10-13T11:41:16;9.80;;;2.80;;
8337;SDS011;4206;48.634;9.516;2023-10-13T11:46:32;9.33;;;2.97;;
8337;SDS011;4206;48.634;9.516;2023-10-13T11:49:04;10.00;;;3.30;;
8337;SDS011;4206;48.634;9.516;2023-10-13T11:51:49;6.97;;;2.50;;
8337;SDS011;4206;48.634;9.516;2023-10-13T11:54:17;7.10;;;2.53;;
8337;SDS011;4206;48.634;9.516;2023-10-13T11:56:46;3.93;;;2.13;;
8337;SDS011;4206;48.634;9.516;2023-10-13T11:59:14;8.80;;;3.00;;
8337;SDS011;4206;48.634;9.516;2023-10-13T12:01:45;20.10;;;3.43;;
8337;SDS011;4206;48.634;9.516;2023-10-13T12:04:29;11.47;;;3.60;;
8337;SDS011;4206;48.634;9.516;2023-10-13T12:07:07;13.00;;;3.30;;
8337;SDS011;4206;48.634;9.516;2023-10-13T12:09:50;8.83;;;3.27;;
8337;SDS011;4206;48.634;9.516;2023-10-13T12:12:18;6.90;;;2.57;;
8337;SDS011;4206;48.634;9.516;2023-10-13T12:14:45;6.03;;;2.40;;
8337;SDS011;4206;48.634;9.516;2023-10-13T12:17:19;5.87;;;3.30;;
8337;SDS011;4206;48.634;9.516;2023-10-13T12:19:52;6.40;;;2.83;;
8337;SDS011;4206;48.634;9.516;2023-10-13T12:22:19;9.07;;;2.80;;
8337;SDS011;4206;48.634;9.516;2023-10-13T12:24:55;5.57;;;2.53;;
8337;SDS011;4206;48.634;9.516;2023-10-13T12:27:22;7.43;;;3.15;;
8337;SDS011;4206;48.634;9.516;2023-10-13T12:29:50;11.77;;;3.15;;
8337;SDS011;4206;48.634;9.516;2023-10-13T12:32:19;4.63;;;2.97;;
8337;SDS011;4206;48.634;9.516;2023-10-13T12:34:48;4.25;;;2.95;;
8337;SDS011;4206;48.634;9.516;2023-10-13T12:37:31;8.20;;;3.30;;
8337;SDS011;4206;48.634;9.516;2023-10-13T12:40:14;8.10;;;3.30;;
8337;SDS011;4206;48.634;9.516;2023-10-13T12:42:58;7.82;;;3.35;;
8337;SDS011;4206;48.634;9.516;2023-10-13T12:45:41;11.25;;;2.80;;
8337;SDS011;4206;48.634;9.516;2023-10-13T12:48:24;9.30;;;3.53;;
8337;SDS011;4206;48.634;9.516;2023-10-13T12:51:06;9.63;;;2.78;;
8337;SDS011;4206;48.634;9.516;2023-10-13T12:56:15;8.63;;;2.80;;
8337;SDS011;4206;48.634;9.516;2023-10-13T12:58:42;8.77;;;3.60;;
8337;SDS011;4206;48.634;9.516;2023-10-13T13:01:18;5.38;;;2.88;;
8337;SDS011;4206;48.634;9.516;2023-10-13T13:03:47;8.02;;;2.80;;
8337;SDS011;4206;48.634;9.516;2023-10-13T13:06:16;4.45;;;2.53;;
8337;SDS011;4206;48.634;9.516;2023-10-13T13:08:44;5.75;;;2.60;;
8337;SDS011;4206;48.634;9.516;2023-10-13T13:11:13;6.68;;;2.47;;
8337;SDS011;4206;48.634;9.516;2023-10-13T13:13:39;6.15;;;2.78;;
8337;SDS011;4206;48.634;9.516;2023-10-13T13:16:06;14.70;;;3.40;;
8337;SDS011;4206;48.634;9.516;2023-10-13T13:18:34;5.22;;;3.00;;
8337;SDS011;4206;48.634;9.516;2023-10-13T13:21:01;6.45;;;3.33;;
8337;SDS011;4206;48.634;9.516;2023-10-13T13:23:32;7.00;;;3.15;;
8337;SDS011;4206;48.634;9.516;2023-10-13T13:26:01;7.95;;;3.50;;
8337;SDS011;4206;48.634;9.516;2023-10-13T13:28:28;9.65;;;2.78;;
8337;SDS011;4206;48.634;9.516;2023-10-13T13:30:56;9.32;;;3.15;;
8337;SDS011;4206;48.634;9.516;2023-10-13T13:33:23;9.07;;;3.33;;
8337;SDS011;4206;48.634;9.516;2023-10-13T13:35:53;8.43;;;3.17;;
8337;SDS011;4206;48.634;9.516;2023-10-13T13:38:21;6.75;;;2.88;;
8337;SDS011;4206;48.634;9.516;2023-10-13T13:40:53;8.13;;;3.50;;
8337;SDS011;4206;48.634;9.516;2023-10-13T13:43:21;5.75;;;2.45;;
8337;SDS011;4206;48.634;9.516;2023-10-13T13:46:05;4.38;;;3.10;;
8337;SDS011;4206;48.634;9.516;2023-10-13T13:48:36;5.63;;;3.13;;
8337;SDS011;4206;48.634;9.516;2023-10-13T13:51:04;8.25;;;3.22;;
8337;SDS011;4206;48.634;9.516;2023-10-13T13:53:39;6.28;;;2.95;;
8337;SDS011;4206;48.634;9.516;2023-10-13T13:56:11;7.80;;;3.08;;
8337;SDS011;4206;48.634;9.516;2023-10-13T13:58:44;7.60;;;3.75;;
8337;SDS011;4206;48.634;9.516;2023-10-13T14:01:12;7.53;;;3.40;;
8337;SDS011;4206;48.634;9.516;2023-10-13T14:03:41;10.60;;;3.50;;
8337;SDS011;4206;48.634;9.516;2023-10-13T14:08:57;9.93;;;3.22;;
8337;SDS011;4206;48.634;9.516;2023-10-13T14:11:41;7.38;;;3.22;;
8337;SDS011;4206;48.634;9.516;2023-10-13T14:14:24;7.70;;;2.75;;
8337;SDS011;4206;48.634;9.516;2023-10-13T14:16:51;6.45;;;3.22;;
8337;SDS011;4206;48.634;9.516;2023-10-13T14:19:20;16.60;;;3.53;;
8337;SDS011;4206;48.634;9.516;2023-10-13T14:21:55;9.48;;;3.67;;
8337;SDS011;4206;48.634;9.516;2023-10-13T14:24:23;8.73;;;2.63;;
8337;SDS011;4206;48.634;9.516;2023-10-13T14:26:55;8.07;;;3.30;;
8337;SDS011;4206;48.634;9.516;2023-10-13T14:29:22;6.13;;;2.80;;
8337;SDS011;4206;48.634;9.516;2023-10-13T14:31:53;11.82;;;3.28;;
8337;SDS011;4206;48.634;9.516;2023-10-13T14:34:20;6.45;;;3.05;;
8337;SDS011;4206;48.634;9.516;2023-10-13T14:36:48;6.03;;;2.95;;
8337;SDS011;4206;48.634;9.516;2023-10-13T14:39:15;4.00;;;2.67;;
8337;SDS011;4206;48.634;9.516;2023-10-13T14:41:42;11.02;;;3.35;;
8337;SDS011;4206;48.634;9.516;2023-10-13T14:44:09;5.65;;;3.10;;
8337;SDS011;4206;48.634;9.516;2023-10-13T14:46:39;4.07;;;2.38;;
8337;SDS011;4206;48.634;9.516;2023-10-13T14:49:06;5.10;;;3.33;;
8337;SDS011;4206;48.634;9.516;2023-10-13T14:51:33;6.30;;;3.13;;
8337;SDS011;4206;48.634;9.516;2023-10-13T14:54:06;5.93;;;3.53;;
8337;SDS011;4206;48.634;9.516;2023-10-13T14:56:33;8.68;;;2.38;;
8337;SDS011;4206;48.634;9.516;2023-10-13T14:59:00;4.50;;;2.90;;
8337;SDS011;4206;48.634;9.516;2023-10-13T15:01:27;5.13;;;2.35;;
8337;SDS011;4206;48.634;9.516;2023-10-13T15:03:54;10.00;;;2.80;;
8337;SDS011;4206;48.634;9.516;2023-10-13T15:06:24;7.70;;;3.28;;
8337;SDS011;4206;48.634;9.516;2023-10-13T15:08:52;5.18;;;2.72;;
8337;SDS011;4206;48.634;9.516;2023-10-13T15:11:21;52.30;;;5.38;;
8337;SDS011;4206;48.634;9.516;2023-10-13T15:13:53;5.38;;;2.55;;
8337;SDS011;4206;48.634;9.516;2023-10-13T15:16:23;5.63;;;2.60;;
8337;SDS011;4206;48.634;9.516;2023-10-13T15:18:53;8.63;;;2.57;;
8337;SDS011;4206;48.634;9.516;2023-10-13T15:21:22;5.82;;;2.58;;
8337;SDS011;4206;48.634;9.516;2023-10-13T15:23:55;7.93;;;3.00;;
8337;SDS011;4206;48.634;9.516;2023-10-13T15:26:51;7.80;;;2.80;;
8337;SDS011;4206;48.634;9.516;2023-10-13T15:29:23;8.80;;;2.73;;
8337;SDS011;4206;48.634;9.516;2023-10-13T15:31:52;8.73;;;2.47;;
8337;SDS011;4206;48.634;9.516;2023-10-13T15:34:28;7.73;;;2.70;;
8337;SDS011;4206;48.634;9.516;2023-10-13T15:36:55;7.05;;;2.45;;
8337;SDS011;4206;48.634;9.516;2023-10-13T15:39:23;5.53;;;2.20;;
8337;SDS011;4206;48.634;9.516;2023-10-13T15:41:51;8.10;;;2.23;;
8337;SDS011;4206;48.634;9.516;2023-10-13T15:44:19;4.07;;;2.53;;
8337;SDS011;4206;48.634;9.516;2023-10-13T15:46:52;6.90;;;2.20;;
8337;SDS011;4206;48.634;9.516;2023-10-13T15:49:23;5.90;;;2.63;;
8337;SDS011;4206;48.634;9.516;2023-10-13T15:51:51;8.37;;;2.40;;
8337;SDS011;4206;48.634;9.516;2023-10-13T15:54:24;6.60;;;3.80;;
8337;SDS011;4206;48.634;9.516;2023-10-13T15:56:51;8.47;;;2.87;;
8337;SDS011;4206;48.634;9.516;2023-10-13T15:59:18;6.70;;;3.70;;
8337;SDS011;4206;48.634;9.516;2023-10-13T16:01:45;4.90;;;2.13;;
8337;SDS011;4206;48.634;9.516;2023-10-13T16:04:13;4.63;;;2.30;;
8337;SDS011;4206;48.634;9.516;2023-10-13T16:06:42;7.93;;;2.50;;
8337;SDS011;4206;48.634;9.516;2023-10-13T16:09:13;5.53;;;2.50;;
8337;SDS011;4206;48.634;9.516;2023-10-13T16:11:42;8.37;;;2.30;;